Point Enterprise, Texas
Current Conditions -  °F | °C
As of 5:35 PM on Thursday 18 Dec 2014 (Local Time) from KLXY Reporting Station
Overcast Overcast  
Wind Chill: 47°   Ceiling: 700
Heat Index: 49°   Visibility: 10mi
Dew Point: 48°   Wind: 6mph
Humidity: 95%   Direction: 40°NE
Pressure: 30.1"   Gusts: NA
Location:  31.6887°N, 96.511°W
Report Text: KLXY 182335Z AUTO 04005KT 10SM OVC007 10/09 A3010 RMK AO2 T00960088
Loading
Personal Weather Stations






























Interactive Weather Map New forecast layout! Learn more

10-Day Weather Forecast

Advertisements
Track Severe Weather on mobile